Time,TemperatureF,DewpointF,PressureIn,WindDirection,WindDirectionDegrees,WindSpeedMPH,WindSpeedGustMPH,Humidity,HourlyPrecipIn,Conditions,Clouds,dailyrainin,SolarRadiationWatts/m^2,SoftwareType,DateUTC
2013-05-18 00:21:00,47.0,46.0,-100.00,East,86,0.0,0.0,96,0.00,,,0.08,0.000000,,2013-05-18 07:21:00,
2013-05-18 00:31:00,47.0,46.0,-100.00,East,86,0.0,0.0,96,0.00,,,0.08,0.000000,,2013-05-18 07:31:00,
2013-05-18 00:42:00,47.0,46.0,-100.00,East,86,0.0,0.0,96,0.00,,,0.08,0.000000,,2013-05-18 07:42:00,
2013-05-18 00:52:00,47.0,46.0,-100.00,East,86,0.0,0.0,96,0.00,,,0.08,0.000000,,2013-05-18 07:52:00,
2013-05-18 01:21:00,45.0,44.0,-100.00,NE,37,0.0,0.0,95,0.00,,,0.08,0.000000,,2013-05-18 08:21:00,
2013-05-18 01:32:00,45.0,44.0,-100.00,NE,37,0.0,0.0,95,0.00,,,0.08,0.000000,,2013-05-18 08:32:00,
2013-05-18 01:42:00,45.0,44.0,-100.00,NE,37,0.0,0.0,95,0.00,,,0.08,0.000000,,2013-05-18 08:42:00,
2013-05-18 01:52:00,45.0,44.0,-100.00,NE,37,0.0,0.0,95,0.00,,,0.08,0.000000,,2013-05-18 08:52:00,
2013-05-18 02:22:00,46.0,45.0,-100.00,NE,36,0.0,0.0,96,0.00,,,0.08,0.000000,,2013-05-18 09:22:00,
2013-05-18 02:32:00,46.0,45.0,-100.00,NE,36,0.0,0.0,96,0.00,,,0.08,0.000000,,2013-05-18 09:32:00,
2013-05-18 02:43:00,46.0,45.0,-100.00,NE,36,0.0,0.0,96,0.00,,,0.08,0.000000,,2013-05-18 09:43:00,
2013-05-18 02:53:00,46.0,45.0,-100.00,NE,36,0.0,0.0,96,0.00,,,0.08,0.000000,,2013-05-18 09:53:00,
2013-05-18 03:22:00,46.0,45.0,-100.00,ENE,71,0.0,0.0,96,0.00,,,0.08,0.000000,,2013-05-18 10:22:00,
2013-05-18 03:33:00,46.0,45.0,-100.00,ENE,71,0.0,0.0,96,0.00,,,0.08,0.000000,,2013-05-18 10:33:00,
2013-05-18 03:42:00,46.0,45.0,-100.00,ENE,71,0.0,0.0,96,0.00,,,0.08,0.000000,,2013-05-18 10:42:00,
2013-05-18 03:52:00,46.0,45.0,-100.00,ENE,71,0.0,0.0,96,0.00,,,0.08,0.000000,,2013-05-18 10:52:00,
2013-05-18 04:22:00,46.0,45.0,-100.00,WSW,253,0.0,0.0,96,0.01,,,0.09,0.000000,,2013-05-18 11:22:00,
2013-05-18 04:33:00,46.0,45.0,-100.00,WSW,253,0.0,0.0,96,0.01,,,0.09,0.000000,,2013-05-18 11:33:00,
2013-05-18 04:42:00,46.0,45.0,-100.00,WSW,253,0.0,0.0,96,0.01,,,0.09,0.000000,,2013-05-18 11:42:00,
2013-05-18 04:52:00,46.0,45.0,-100.00,WSW,253,0.0,0.0,96,0.01,,,0.09,0.000000,,2013-05-18 11:52:00,
2013-05-18 05:23:00,44.0,43.0,-100.00,ESE,109,0.0,0.0,96,0.00,,,0.09,0.000000,,2013-05-18 12:23:00,
2013-05-18 05:33:00,44.0,43.0,-100.00,ESE,109,0.0,0.0,96,0.00,,,0.09,0.000000,,2013-05-18 12:33:00,
2013-05-18 05:41:00,44.0,43.0,-100.00,ESE,109,0.0,0.0,96,0.00,,,0.09,0.000000,,2013-05-18 12:41:00,
2013-05-18 05:52:00,44.0,43.0,-100.00,ESE,109,0.0,0.0,96,0.00,,,0.09,0.000000,,2013-05-18 12:52:00,
2013-05-18 06:21:00,45.0,44.0,-100.00,ENE,74,0.0,5.0,96,0.02,,,0.11,1.000000,,2013-05-18 13:21:00,
2013-05-18 06:33:00,45.0,44.0,-100.00,ENE,74,0.0,5.0,96,0.02,,,0.11,1.000000,,2013-05-18 13:33:00,
2013-05-18 06:43:00,45.0,44.0,-100.00,ENE,74,0.0,5.0,96,0.02,,,0.11,1.000000,,2013-05-18 13:43:00,
2013-05-18 06:52:00,45.0,44.0,-100.00,ENE,74,0.0,5.0,96,0.02,,,0.11,1.000000,,2013-05-18 13:52:00,
2013-05-18 07:22:00,46.0,45.0,-100.00,ESE,115,0.0,0.0,96,0.07,,,0.18,14.000000,,2013-05-18 14:22:00,
2013-05-18 07:32:00,46.0,45.0,-100.00,ESE,115,0.0,0.0,96,0.07,,,0.18,14.000000,,2013-05-18 14:32:00,
2013-05-18 07:42:00,46.0,45.0,-100.00,ESE,115,0.0,0.0,96,0.07,,,0.18,14.000000,,2013-05-18 14:42:00,
2013-05-18 07:54:00,46.0,45.0,-100.00,ESE,115,0.0,0.0,96,0.07,,,0.18,14.000000,,2013-05-18 14:54:00,
2013-05-18 08:23:00,50.0,47.0,-100.00,WSW,243,0.0,0.0,91,0.01,,,-99.99,108.000000,,2013-05-18 15:23:00,
2013-05-18 08:33:00,50.0,47.0,-100.00,WSW,243,0.0,0.0,91,0.01,,,-99.99,108.000000,,2013-05-18 15:33:00,
2013-05-18 08:43:00,50.0,47.0,-100.00,WSW,243,0.0,0.0,91,0.01,,,-99.99,108.000000,,2013-05-18 15:43:00,
2013-05-18 08:53:00,50.0,47.0,-100.00,WSW,243,0.0,0.0,91,0.01,,,-99.99,108.000000,,2013-05-18 15:53:00,
2013-05-18 09:22:00,50.0,48.0,-100.00,West,269,0.0,5.0,93,0.00,,,0.19,161.000000,,2013-05-18 16:22:00,
2013-05-18 09:32:00,50.0,48.0,-100.00,West,269,0.0,5.0,93,0.00,,,0.19,161.000000,,2013-05-18 16:32:00,
2013-05-18 09:42:00,50.0,48.0,-100.00,West,269,0.0,5.0,93,0.00,,,0.19,161.000000,,2013-05-18 16:42:00,
2013-05-18 09:52:00,50.0,48.0,-100.00,West,269,0.0,5.0,93,0.00,,,0.19,161.000000,,2013-05-18 16:52:00,
2013-05-18 10:22:00,48.0,46.0,-100.00,SE,131,0.0,5.0,93,0.00,,,0.19,160.000000,,2013-05-18 17:22:00,
2013-05-18 10:32:00,48.0,46.0,-100.00,SE,131,0.0,5.0,93,0.00,,,0.19,160.000000,,2013-05-18 17:32:00,
2013-05-18 10:42:00,48.0,46.0,-100.00,SE,131,0.0,5.0,93,0.00,,,0.19,160.000000,,2013-05-18 17:42:00,
2013-05-18 10:51:00,48.0,46.0,-100.00,SE,131,0.0,5.0,93,0.00,,,0.19,160.000000,,2013-05-18 17:51:00,
2013-05-18 11:21:00,49.0,47.0,-100.00,WNW,296,0.0,7.0,92,0.00,,,0.19,135.000000,,2013-05-18 18:21:00,
2013-05-18 11:32:00,49.0,47.0,-100.00,WNW,296,0.0,7.0,92,0.00,,,0.19,135.000000,,2013-05-18 18:32:00,
2013-05-18 11:42:00,49.0,47.0,-100.00,WNW,296,0.0,7.0,92,0.00,,,0.19,135.000000,,2013-05-18 18:42:00,
2013-05-18 11:51:00,49.0,47.0,-100.00,WNW,296,0.0,7.0,92,0.00,,,0.19,135.000000,,2013-05-18 18:51:00,
2013-05-18 12:22:00,50.0,46.0,-100.00,West,279,0.0,5.0,87,0.00,,,0.19,197.000000,,2013-05-18 19:22:00,
2013-05-18 12:32:00,50.0,46.0,-100.00,West,279,0.0,5.0,87,0.00,,,0.19,197.000000,,2013-05-18 19:32:00,
2013-05-18 12:42:00,50.0,46.0,-100.00,West,279,0.0,5.0,87,0.00,,,0.19,197.000000,,2013-05-18 19:42:00,
2013-05-18 12:52:00,50.0,46.0,-100.00,West,279,0.0,5.0,87,0.00,,,0.19,197.000000,,2013-05-18 19:52:00,
2013-05-18 13:22:00,53.0,48.0,-100.00,SW,231,0.0,5.0,82,0.00,,,0.19,239.000000,,2013-05-18 20:22:00,
2013-05-18 13:32:00,53.0,48.0,-100.00,SW,231,0.0,5.0,82,0.00,,,0.19,239.000000,,2013-05-18 20:32:00,
2013-05-18 13:42:00,53.0,48.0,-100.00,SW,231,0.0,5.0,82,0.00,,,0.19,239.000000,,2013-05-18 20:42:00,
2013-05-18 13:52:00,53.0,48.0,-100.00,SW,231,0.0,5.0,82,0.00,,,0.19,239.000000,,2013-05-18 20:52:00,
2013-05-18 14:21:00,53.0,42.0,-100.00,ENE,70,3.0,9.0,66,0.00,,,0.19,321.000000,,2013-05-18 21:21:00,
2013-05-18 14:32:00,53.0,42.0,-100.00,ENE,70,3.0,9.0,66,0.00,,,0.19,321.000000,,2013-05-18 21:32:00,
2013-05-18 14:43:00,53.0,42.0,-100.00,ENE,70,3.0,9.0,66,0.00,,,0.19,321.000000,,2013-05-18 21:43:00,
2013-05-18 14:53:00,53.0,42.0,-100.00,ENE,70,3.0,9.0,66,0.00,,,0.19,321.000000,,2013-05-18 21:53:00,
2013-05-18 15:23:00,57.0,44.0,-100.00,SE,139,0.0,9.0,62,0.00,,,0.12,396.000000,,2013-05-18 22:23:00,
2013-05-18 15:33:00,57.0,44.0,-100.00,SE,139,0.0,9.0,62,0.00,,,0.12,396.000000,,2013-05-18 22:33:00,
2013-05-18 15:42:00,57.0,44.0,-100.00,SE,139,0.0,9.0,62,0.00,,,0.12,396.000000,,2013-05-18 22:42:00,
2013-05-18 15:52:00,57.0,44.0,-100.00,SE,139,0.0,9.0,62,0.00,,,0.12,396.000000,,2013-05-18 22:52:00,
2013-05-18 16:22:00,57.0,42.0,-100.00,NE,34,1.0,9.0,57,0.00,,,0.11,418.000000,,2013-05-18 23:22:00,
2013-05-18 16:32:00,57.0,42.0,-100.00,NE,34,1.0,9.0,57,0.00,,,0.11,418.000000,,2013-05-18 23:32:00,
2013-05-18 16:41:00,57.0,42.0,-100.00,NE,34,1.0,9.0,57,0.00,,,0.11,418.000000,,2013-05-18 23:41:00,
2013-05-18 16:52:00,57.0,42.0,-100.00,NE,34,1.0,9.0,57,0.00,,,0.11,418.000000,,2013-05-18 23:52:00,
2013-05-18 17:21:00,60.0,43.0,-100.00,SW,222,1.0,8.0,54,0.00,,,0.11,487.000000,,2013-05-19 00:21:00,
2013-05-18 17:31:00,60.0,43.0,-100.00,SW,222,1.0,8.0,54,0.00,,,0.11,487.000000,,2013-05-19 00:31:00,
2013-05-18 17:41:00,60.0,43.0,-100.00,SW,222,1.0,8.0,54,0.00,,,0.11,487.000000,,2013-05-19 00:41:00,
2013-05-18 17:51:00,60.0,43.0,-100.00,SW,222,1.0,8.0,54,0.00,,,0.11,487.000000,,2013-05-19 00:51:00,
2013-05-18 18:21:00,55.0,41.0,-100.00,SW,234,0.0,8.0,60,-99.99,,,0.11,185.000000,,2013-05-19 01:21:00,
2013-05-18 18:32:00,55.0,41.0,-100.00,SW,234,0.0,8.0,60,-99.99,,,0.11,185.000000,,2013-05-19 01:32:00,
2013-05-18 18:42:00,55.0,41.0,-100.00,SW,234,0.0,8.0,60,-99.99,,,0.11,185.000000,,2013-05-19 01:42:00,
2013-05-18 18:52:00,55.0,41.0,-100.00,SW,234,0.0,8.0,60,-99.99,,,0.11,185.000000,,2013-05-19 01:52:00,
2013-05-18 19:21:00,55.0,45.0,-100.00,South,187,0.0,5.0,69,0.00,,,0.11,118.000000,,2013-05-19 02:21:00,
2013-05-18 19:32:00,55.0,45.0,-100.00,South,187,0.0,5.0,69,0.00,,,0.11,118.000000,,2013-05-19 02:32:00,
2013-05-18 19:42:00,55.0,45.0,-100.00,South,187,0.0,5.0,69,0.00,,,0.11,118.000000,,2013-05-19 02:42:00,
2013-05-18 19:52:00,55.0,45.0,-100.00,South,187,0.0,5.0,69,0.00,,,0.11,118.000000,,2013-05-19 02:52:00,
2013-05-18 20:21:00,52.0,45.0,-100.00,NNW,330,0.0,6.0,76,0.00,,,0.11,30.000000,,2013-05-19 03:21:00,
2013-05-18 20:33:00,52.0,45.0,-100.00,NNW,330,0.0,6.0,76,0.00,,,0.11,30.000000,,2013-05-19 03:33:00,
2013-05-18 20:42:00,52.0,45.0,-100.00,NNW,330,0.0,6.0,76,0.00,,,0.11,30.000000,,2013-05-19 03:42:00,
2013-05-18 20:53:00,52.0,45.0,-100.00,NNW,330,0.0,6.0,76,0.00,,,0.11,30.000000,,2013-05-19 03:53:00,
2013-05-18 21:23:00,49.0,46.0,-100.00,South,191,0.0,0.0,90,0.00,,,0.11,2.000000,,2013-05-19 04:23:00,
2013-05-18 21:33:00,49.0,46.0,-100.00,South,191,0.0,0.0,90,0.00,,,0.11,2.000000,,2013-05-19 04:33:00,
2013-05-18 21:42:00,49.0,46.0,-100.00,South,191,0.0,0.0,90,0.00,,,0.11,2.000000,,2013-05-19 04:42:00,
2013-05-18 21:52:00,49.0,46.0,-100.00,South,191,0.0,0.0,90,0.00,,,0.11,2.000000,,2013-05-19 04:52:00,
2013-05-18 22:22:00,46.0,44.0,-100.00,NNE,22,0.0,0.0,94,0.00,,,0.11,0.000000,,2013-05-19 05:22:00,
2013-05-18 22:32:00,46.0,44.0,-100.00,NNE,22,0.0,0.0,94,0.00,,,0.11,0.000000,,2013-05-19 05:32:00,
2013-05-18 22:42:00,46.0,44.0,-100.00,NNE,22,0.0,0.0,94,0.00,,,0.11,0.000000,,2013-05-19 05:42:00,
2013-05-18 22:51:00,46.0,44.0,-100.00,NNE,22,0.0,0.0,94,0.00,,,0.11,0.000000,,2013-05-19 05:51:00,
2013-05-18 23:21:00,47.0,46.0,-100.00,ENE,69,0.0,0.0,95,0.00,,,0.11,0.000000,,2013-05-19 06:21:00,
2013-05-18 23:32:00,47.0,46.0,-100.00,ENE,69,0.0,0.0,95,0.00,,,0.11,0.000000,,2013-05-19 06:32:00,
2013-05-18 23:42:00,47.0,46.0,-100.00,ENE,69,0.0,0.0,95,0.00,,,0.11,0.000000,,2013-05-19 06:42:00,
2013-05-18 23:51:00,47.0,46.0,-100.00,ENE,69,0.0,0.0,95,0.00,,,0.11,0.000000,,2013-05-19 06:51:00,